Time;durP1;ratioP1;P1;durP2;ratioP2;P2;SDS_P1;SDS_P2;PMS_P1;PMS_P2;Temp;Humidity;BMP_temperature;BMP_pressure;BME280_temperature;BME280_humidity;BME280_pressure;Samples;Min_cycle;Max_cycle;Signal;HPM_P1;HPM_P2
2023/09/10 00:01:49;;;;;;;11.90;9.20;;;;;;;16.25;83.02;100970.04;108911;278;38280;-72
2023/09/10 00:04:23;;;;;;;11.80;9.60;;;;;;;16.25;82.92;100970.94;108899;278;39193;-72
2023/09/10 00:06:57;;;;;;;14.10;8.80;;;;;;;16.23;83.02;100970.65;108904;278;40212;-72
2023/09/10 00:09:31;;;;;;;13.20;9.40;;;;;;;16.24;83.21;100971.11;108867;278;39028;-71
2023/09/10 00:12:05;;;;;;;11.90;9.20;;;;;;;16.28;83.19;100971.13;108889;278;39145;-72
2023/09/10 00:14:39;;;;;;;11.70;9.40;;;;;;;16.31;83.34;100968.68;108886;278;38151;-73
2023/09/10 00:17:13;;;;;;;15.80;10.30;;;;;;;16.35;83.24;100973.55;108929;278;38584;-72
2023/09/10 00:19:47;;;;;;;11.10;9.90;;;;;;;16.38;83.31;100975.83;108887;278;38231;-73
2023/09/10 00:22:21;;;;;;;11.50;9.50;;;;;;;16.44;83.32;100972.72;108934;278;38569;-74
2023/09/10 00:24:55;;;;;;;13.50;10.50;;;;;;;16.48;83.26;100970.05;108889;278;38799;-73
2023/09/10 00:27:29;;;;;;;14.40;10.40;;;;;;;16.53;83.21;100966.63;108873;278;38505;-75
2023/09/10 00:30:04;;;;;;;12.60;9.70;;;;;;;16.54;83.00;100964.97;108891;278;38304;-74
2023/09/10 00:32:38;;;;;;;12.00;10.20;;;;;;;16.56;83.05;100965.80;108892;278;39503;-74
2023/09/10 00:35:12;;;;;;;13.00;9.90;;;;;;;16.58;82.99;100964.23;108933;278;39744;-72
2023/09/10 00:37:46;;;;;;;15.30;10.90;;;;;;;16.61;83.14;100965.48;108840;278;38535;-72
2023/09/10 00:40:20;;;;;;;13.50;10.10;;;;;;;16.65;83.02;100963.67;108932;278;39684;-71
2023/09/10 00:42:54;;;;;;;12.80;9.60;;;;;;;16.67;82.88;100964.27;108923;278;39223;-72
2023/09/10 00:45:28;;;;;;;13.40;10.70;;;;;;;16.68;82.78;100964.03;108947;278;38162;-72
2023/09/10 00:48:03;;;;;;;13.30;10.70;;;;;;;16.70;82.87;100961.13;108882;278;39071;-72
2023/09/10 00:50:37;;;;;;;12.80;10.80;;;;;;;16.75;82.99;100958.95;109019;279;39619;-72
2023/09/10 00:53:10;;;;;;;14.00;11.10;;;;;;;16.79;82.79;100961.75;109045;279;38648;-72
2023/09/10 00:55:45;;;;;;;13.60;10.80;;;;;;;16.80;82.77;100964.69;108882;279;38127;-71
2023/09/10 00:58:18;;;;;;;13.90;10.90;;;;;;;16.81;82.77;100964.64;109103;279;38714;-74
2023/09/10 01:00:52;;;;;;;13.50;11.00;;;;;;;16.83;82.86;100960.08;109119;279;38185;-74
2023/09/10 01:03:26;;;;;;;13.90;10.60;;;;;;;16.86;82.73;100961.36;109116;279;38952;-71
2023/09/10 01:06:00;;;;;;;16.10;11.50;;;;;;;16.90;82.65;100959.56;108917;279;39546;-71
2023/09/10 01:08:34;;;;;;;16.30;10.90;;;;;;;16.93;82.84;100955.33;108931;279;38738;-74
2023/09/10 01:11:11;;;;;;;15.70;11.40;;;;;;;16.95;82.46;100955.20;109020;279;38523;-73
2023/09/10 01:13:59;;;;;;;13.50;11.50;;;;;;;16.97;82.53;100954.19;109079;279;39549;-72
2023/09/10 01:16:38;;;;;;;13.00;11.30;;;;;;;16.98;82.28;100948.85;108916;279;39741;-72
2023/09/10 01:19:29;;;;;;;;;;;;;;;16.97;82.19;100952.77;109044;279;38545;-72
2023/09/10 01:22:10;;;;;;;12.70;10.50;;;;;;;16.92;82.21;100956.95;109072;279;39431;-72
2023/09/10 01:24:50;;;;;;;17.30;11.70;;;;;;;16.91;82.13;100959.32;109082;279;39782;-73
2023/09/10 01:27:24;;;;;;;15.90;10.60;;;;;;;16.87;82.09;100958.83;108977;279;39160;-72
2023/09/10 01:29:59;;;;;;;15.70;11.60;;;;;;;16.84;82.00;100961.27;108989;279;38737;-71
2023/09/10 01:32:35;;;;;;;16.40;12.40;;;;;;;16.82;82.25;100963.34;108953;278;39375;-74
2023/09/10 01:35:16;;;;;;;15.30;11.90;;;;;;;16.83;82.31;100964.84;108902;279;38627;-71
2023/09/10 01:38:05;;;;;;;16.60;12.30;;;;;;;16.84;82.48;100963.23;108974;279;39968;-74
2023/09/10 01:40:41;;;;;;;;;;;;;;;16.85;82.40;100960.02;108970;279;38786;-73
2023/09/10 01:43:15;;;;;;;18.80;12.50;;;;;;;16.82;82.52;100962.11;108980;279;38446;-74
2023/09/10 01:45:49;;;;;;;14.60;12.00;;;;;;;16.80;82.32;100960.95;108916;279;38296;-72
2023/09/10 01:48:25;;;;;;;17.70;11.70;;;;;;;16.78;82.43;100959.67;108979;279;38165;-71
2023/09/10 01:50:59;;;;;;;17.00;12.90;;;;;;;16.77;82.34;100957.98;108966;279;38477;-71
2023/09/10 01:53:35;;;;;;;19.80;11.90;;;;;;;16.73;82.39;100956.55;108999;279;40060;-72
2023/09/10 01:56:09;;;;;;;18.00;13.80;;;;;;;16.71;82.61;100955.30;108981;279;40062;-74
2023/09/10 01:58:43;;;;;;;17.30;13.20;;;;;;;16.72;82.83;100951.73;108951;279;38299;-72
2023/09/10 02:01:17;;;;;;;18.00;14.50;;;;;;;16.73;82.97;100948.51;109001;279;38632;-73
2023/09/10 02:03:51;;;;;;;22.00;14.60;;;;;;;16.73;83.16;100949.88;108954;279;39335;-73
2023/09/10 02:06:27;;;;;;;19.50;14.10;;;;;;;16.75;83.24;100952.06;108974;279;38157;-74
2023/09/10 02:09:01;;;;;;;19.20;14.90;;;;;;;16.77;83.24;100954.97;109004;279;38957;-74
2023/09/10 02:11:35;;;;;;;19.90;15.40;;;;;;;16.79;83.32;100952.05;108895;279;38335;-74
2023/09/10 02:14:09;;;;;;;20.90;15.50;;;;;;;16.82;83.46;100950.83;108918;279;38159;-72
2023/09/10 02:16:44;;;;;;;17.60;15.20;;;;;;;16.83;83.45;100947.95;108921;279;38352;-74
2023/09/10 02:19:18;;;;;;;20.90;15.10;;;;;;;16.84;83.40;100945.79;108930;278;38600;-73
2023/09/10 02:21:53;;;;;;;20.40;15.20;;;;;;;16.84;83.45;100945.58;108928;279;39586;-74
2023/09/10 02:24:28;;;;;;;19.90;15.80;;;;;;;16.85;83.43;100946.62;108884;279;174612;-74
2023/09/10 02:27:02;;;;;;;17.70;15.80;;;;;;;16.84;83.48;100945.42;108912;279;38303;-72
2023/09/10 02:29:37;;;;;;;21.30;15.50;;;;;;;16.83;83.38;100944.44;108896;279;38615;-76
2023/09/10 02:32:13;;;;;;;20.70;16.10;;;;;;;16.83;83.29;100949.86;108988;279;38238;-76
2023/09/10 02:34:47;;;;;;;19.30;16.00;;;;;;;16.81;83.21;100950.86;108871;279;175003;-71
2023/09/10 02:37:21;;;;;;;18.10;15.80;;;;;;;16.81;83.48;100954.08;108978;279;38186;-73
2023/09/10 02:39:55;;;;;;;22.50;15.80;;;;;;;16.80;83.43;100949.33;108961;279;39671;-72
2023/09/10 02:42:29;;;;;;;19.70;16.50;;;;;;;16.80;83.18;100951.48;108957;279;38233;-73
2023/09/10 02:45:04;;;;;;;21.20;16.30;;;;;;;16.78;83.57;100955.79;108847;279;38576;-74
2023/09/10 02:47:38;;;;;;;20.90;16.60;;;;;;;16.78;83.67;100956.35;108919;279;38370;-72
2023/09/10 02:50:13;;;;;;;20.80;16.40;;;;;;;16.77;83.96;100958.88;108893;279;38356;-71
2023/09/10 02:52:47;;;;;;;23.00;16.70;;;;;;;16.77;83.96;100954.27;108939;278;39408;-76
2023/09/10 02:55:22;;;;;;;21.40;17.40;;;;;;;16.78;83.95;100955.27;108886;279;40767;-74
2023/09/10 02:57:56;;;;;;;19.70;16.40;;;;;;;16.76;83.86;100953.94;108979;279;38389;-75
2023/09/10 03:00:30;;;;;;;21.40;16.40;;;;;;;16.77;84.17;100952.86;108921;279;38355;-74
2023/09/10 03:03:05;;;;;;;19.20;16.60;;;;;;;16.79;84.39;100956.08;108872;278;38318;-74
2023/09/10 03:05:39;;;;;;;23.40;16.60;;;;;;;16.81;84.20;100955.98;108905;279;38958;-72
2023/09/10 03:08:13;;;;;;;22.70;16.80;;;;;;;16.82;84.00;100955.23;108915;279;39627;-74
2023/09/10 03:10:48;;;;;;;19.90;17.20;;;;;;;16.78;84.09;100956.66;108997;279;38431;-74
2023/09/10 03:13:22;;;;;;;23.00;17.10;;;;;;;16.77;84.12;100962.18;108993;278;39534;-71
2023/09/10 03:15:56;;;;;;;24.60;17.30;;;;;;;16.75;84.12;100960.02;108968;279;39985;-73
2023/09/10 03:18:30;;;;;;;23.60;17.70;;;;;;;16.73;84.11;100956.05;108966;279;38642;-71
2023/09/10 03:21:06;;;;;;;20.30;16.90;;;;;;;16.70;84.03;100956.56;108893;279;39381;-71
2023/09/10 03:23:39;;;;;;;22.80;16.80;;;;;;;16.67;84.26;100953.71;108961;278;38421;-74
2023/09/10 03:26:16;;;;;;;23.30;16.60;;;;;;;16.67;84.44;100951.08;108932;279;38484;-74
2023/09/10 03:28:50;;;;;;;23.10;16.60;;;;;;;16.67;84.42;100946.12;108888;279;38499;-75
2023/09/10 03:31:24;;;;;;;20.70;17.10;;;;;;;16.65;84.40;100943.95;108912;279;38269;-74
2023/09/10 03:33:58;;;;;;;19.50;17.10;;;;;;;16.64;84.46;100942.40;108874;279;38151;-71
2023/09/10 03:36:33;;;;;;;20.20;16.90;;;;;;;16.63;84.45;100944.04;108872;279;38774;-72
2023/09/10 03:39:08;;;;;;;23.00;17.60;;;;;;;16.61;84.50;100945.21;108859;279;38534;-74
2023/09/10 03:41:42;;;;;;;19.80;16.70;;;;;;;16.60;84.59;100946.86;108877;279;39197;-72
2023/09/10 03:44:16;;;;;;;23.00;17.30;;;;;;;16.60;84.68;100944.79;108870;279;38942;-72
2023/09/10 03:46:50;;;;;;;21.20;17.50;;;;;;;16.60;84.86;100944.05;108887;279;38215;-71
2023/09/10 03:49:24;;;;;;;20.20;17.00;;;;;;;16.60;85.16;100938.61;108955;279;38300;-73
2023/09/10 03:51:58;;;;;;;26.70;18.20;;;;;;;16.59;84.95;100937.92;108825;279;38778;-72
2023/09/10 03:54:32;;;;;;;23.80;17.50;;;;;;;16.58;85.02;100937.66;108882;279;38314;-74
2023/09/10 03:57:11;;;;;;;21.30;17.30;;;;;;;16.56;85.11;100933.36;108892;279;38349;-74
2023/09/10 03:59:45;;;;;;;19.80;16.50;;;;;;;16.54;85.13;100935.06;108893;279;39292;-74
2023/09/10 04:02:19;;;;;;;21.10;18.00;;;;;;;16.52;85.18;100935.34;108885;279;38857;-74
2023/09/10 04:04:53;;;;;;;23.00;18.10;;;;;;;16.49;85.26;100933.16;108917;279;39668;-71
2023/09/10 04:07:27;;;;;;;20.60;18.00;;;;;;;16.47;85.31;100932.23;108900;279;39639;-73
2023/09/10 04:10:02;;;;;;;21.20;17.50;;;;;;;16.46;85.45;100932.67;108835;279;39618;-73
2023/09/10 04:12:36;;;;;;;23.00;18.60;;;;;;;16.45;85.66;100933.77;108904;279;39637;-73
2023/09/10 04:15:14;;;;;;;22.30;17.80;;;;;;;16.45;85.73;100932.72;108880;279;38564;-72
2023/09/10 04:17:48;;;;;;;25.60;17.60;;;;;;;16.45;85.90;100933.60;108857;279;39330;-72
2023/09/10 04:20:22;;;;;;;21.20;17.30;;;;;;;16.44;86.05;100932.05;108909;279;38230;-72
2023/09/10 04:22:56;;;;;;;18.60;16.00;;;;;;;16.45;86.18;100932.19;108894;279;39884;-74
2023/09/10 04:25:31;;;;;;;24.80;16.60;;;;;;;16.45;86.21;100935.54;109032;279;38216;-74
2023/09/10 04:28:06;;;;;;;21.00;17.40;;;;;;;16.46;86.36;100932.66;109038;279;38165;-73
2023/09/10 04:30:40;;;;;;;20.00;17.20;;;;;;;16.47;86.44;100935.05;108999;279;38360;-74
2023/09/10 04:33:16;;;;;;;19.80;16.50;;;;;;;16.49;86.69;100937.21;109043;279;38387;-74
2023/09/10 04:35:57;;;;;;;22.40;17.20;;;;;;;16.52;86.74;100932.35;109047;279;38318;-74
2023/09/10 04:38:31;;;;;;;24.00;17.30;;;;;;;16.56;86.78;100931.76;109092;279;39351;-73
2023/09/10 04:41:05;;;;;;;23.20;17.10;;;;;;;16.61;86.93;100934.68;109048;279;39597;-74
2023/09/10 04:43:39;;;;;;;22.30;17.70;;;;;;;16.67;87.01;100934.14;109026;279;39494;-72
2023/09/10 04:46:13;;;;;;;20.70;16.40;;;;;;;16.73;86.79;100936.86;109027;279;38909;-74
2023/09/10 04:48:47;;;;;;;21.00;17.20;;;;;;;16.78;86.99;100939.43;108854;278;39730;-74
2023/09/10 04:51:21;;;;;;;23.00;16.90;;;;;;;16.84;86.98;100936.95;108968;279;38805;-74
2023/09/10 04:53:56;;;;;;;20.90;16.30;;;;;;;16.91;86.82;100933.74;108917;279;39293;-73
2023/09/10 04:56:31;;;;;;;22.70;16.70;;;;;;;16.97;86.76;100932.33;108976;279;39380;-73
2023/09/10 04:59:05;;;;;;;20.50;16.50;;;;;;;17.06;86.80;100932.56;109068;279;38647;-72
2023/09/10 05:01:40;;;;;;;21.20;17.10;;;;;;;17.15;86.67;100929.61;108901;278;39645;-74
2023/09/10 05:04:14;;;;;;;23.40;17.10;;;;;;;17.22;86.45;100931.27;109054;279;38766;-74
2023/09/10 05:06:48;;;;;;;19.50;16.20;;;;;;;17.30;86.35;100931.75;109055;279;38262;-75
2023/09/10 05:09:22;;;;;;;21.60;16.50;;;;;;;17.38;86.33;100931.65;109027;279;39602;-72
2023/09/10 05:11:58;;;;;;;19.70;16.20;;;;;;;17.49;86.27;100928.17;109006;279;39707;-72
2023/09/10 05:14:32;;;;;;;19.30;16.60;;;;;;;17.58;85.78;100931.21;108997;279;39234;-72
2023/09/10 05:17:08;;;;;;;20.30;17.40;;;;;;;17.64;85.59;100934.36;108994;279;39044;-71
2023/09/10 05:19:47;;;;;;;19.70;16.20;;;;;;;17.74;85.63;100939.23;109011;279;38741;-74
2023/09/10 05:22:22;;;;;;;20.30;17.10;;;;;;;17.99;85.88;100939.36;108897;278;38262;-72
2023/09/10 05:24:56;;;;;;;22.20;15.20;;;;;;;18.41;85.95;100938.39;108964;279;38632;-74
2023/09/10 05:27:30;;;;;;;17.90;15.50;;;;;;;18.92;85.76;100935.96;108883;279;39417;-74
2023/09/10 05:30:05;;;;;;;19.90;16.50;;;;;;;19.34;84.27;100933.55;109064;279;38708;-74
2023/09/10 05:32:39;;;;;;;18.70;16.10;;;;;;;19.64;82.53;100937.23;109040;279;38419;-76
2023/09/10 05:35:16;;;;;;;19.60;16.00;;;;;;;19.92;81.25;100937.33;109026;279;38158;-72
2023/09/10 05:37:49;;;;;;;20.60;17.00;;;;;;;19.99;79.58;100945.17;109029;279;38278;-74
2023/09/10 05:40:25;;;;;;;20.40;17.30;;;;;;;19.94;78.54;100944.42;108983;279;39023;-72
2023/09/10 05:42:59;;;;;;;19.50;17.10;;;;;;;19.93;78.24;100943.30;109031;279;38306;-74
2023/09/10 05:45:34;;;;;;;18.20;16.10;;;;;;;19.93;77.96;100945.24;108993;278;38922;-73
2023/09/10 05:48:10;;;;;;;17.20;14.90;;;;;;;19.95;78.01;100946.19;108990;279;38432;-72
2023/09/10 05:50:44;;;;;;;19.70;15.40;;;;;;;19.97;77.68;100948.01;108865;279;38118;-72
2023/09/10 05:53:19;;;;;;;19.10;15.30;;;;;;;20.03;77.71;100950.02;109010;279;38176;-74
2023/09/10 05:55:53;;;;;;;20.00;15.40;;;;;;;20.41;78.77;100950.25;108971;279;39667;-74
2023/09/10 05:58:27;;;;;;;22.00;16.20;;;;;;;21.07;78.44;100948.73;108943;279;39442;-74
2023/09/10 06:01:01;;;;;;;17.80;15.10;;;;;;;21.72;77.31;100947.31;108949;279;38393;-75
2023/09/10 06:03:35;;;;;;;18.50;15.10;;;;;;;22.39;75.46;100950.18;108919;279;38430;-74
2023/09/10 06:06:10;;;;;;;17.70;15.80;;;;;;;23.02;73.07;100947.84;108321;279;890901;-74
2023/09/10 06:08:44;;;;;;;17.40;14.70;;;;;;;23.62;70.79;100946.84;108908;279;38985;-74
2023/09/10 06:11:19;;;;;;;15.90;14.40;;;;;;;24.09;68.01;100942.50;108887;279;38735;-78
2023/09/10 06:13:53;;;;;;;17.30;14.60;;;;;;;24.44;66.05;100941.45;108940;279;38888;-76
2023/09/10 06:16:27;;;;;;;19.00;14.90;;;;;;;24.46;64.52;100939.84;108925;279;38588;-74
2023/09/10 06:19:01;;;;;;;19.00;14.50;;;;;;;24.42;63.62;100943.06;108912;279;38167;-72
2023/09/10 06:21:35;;;;;;;18.30;14.30;;;;;;;24.33;62.63;100944.56;108910;279;38168;-74
2023/09/10 06:24:09;;;;;;;17.00;14.60;;;;;;;24.11;62.50;100944.09;108894;279;39616;-74
2023/09/10 06:26:45;;;;;;;17.10;14.20;;;;;;;23.91;62.60;100947.25;108893;279;39311;-74
2023/09/10 06:29:19;;;;;;;16.10;14.30;;;;;;;23.67;62.77;100946.42;108904;279;39527;-72
2023/09/10 06:31:53;;;;;;;16.50;14.30;;;;;;;23.48;63.25;100947.42;108873;278;38272;-73
2023/09/10 06:34:28;;;;;;;16.40;14.40;;;;;;;23.36;63.24;100942.92;108899;279;40239;-74
2023/09/10 06:37:02;;;;;;;18.10;14.10;;;;;;;23.26;63.58;100941.27;108932;279;39360;-75
2023/09/10 06:39:39;;;;;;;16.50;14.30;;;;;;;23.16;63.81;100940.80;108879;279;38161;-74
2023/09/10 06:42:14;;;;;;;18.10;14.80;;;;;;;23.10;63.81;100940.09;108853;279;38826;-75
2023/09/10 06:44:48;;;;;;;16.70;15.00;;;;;;;23.07;64.26;100947.30;108950;279;39566;-74
2023/09/10 06:47:22;;;;;;;17.60;14.30;;;;;;;23.00;64.37;100947.11;108874;279;39805;-74
2023/09/10 06:49:56;;;;;;;18.60;15.10;;;;;;;22.98;64.63;100952.66;108884;279;38642;-74
2023/09/10 06:52:30;;;;;;;17.10;14.40;;;;;;;22.96;64.59;100951.20;108902;279;38219;-74
2023/09/10 06:55:04;;;;;;;18.70;13.60;;;;;;;22.94;64.62;100953.49;108890;279;39002;-75
2023/09/10 06:57:39;;;;;;;16.90;14.70;;;;;;;22.93;64.75;100954.49;108368;279;642757;-76
2023/09/10 07:00:15;;;;;;;19.00;13.60;;;;;;;22.93;64.93;100952.48;108920;279;38624;-75
2023/09/10 07:02:49;;;;;;;15.50;13.50;;;;;;;22.94;65.11;100951.86;108935;279;38214;-72
2023/09/10 07:05:23;;;;;;;16.10;13.90;;;;;;;23.00;65.53;100954.29;108914;278;38200;-76
2023/09/10 07:07:58;;;;;;;17.10;14.90;;;;;;;23.09;65.28;100950.16;108900;278;38240;-74
2023/09/10 07:10:33;;;;;;;18.80;14.10;;;;;;;23.16;65.02;100950.42;108906;279;38465;-73
2023/09/10 07:13:09;;;;;;;17.20;14.30;;;;;;;23.20;64.47;100951.71;108993;279;38327;-70
2023/09/10 07:15:42;;;;;;;16.00;14.10;;;;;;;23.28;64.79;100950.71;108979;279;38981;-72
2023/09/10 07:18:16;;;;;;;17.20;14.50;;;;;;;23.40;64.51;100952.20;108941;279;39359;-71
2023/09/10 07:20:50;;;;;;;15.10;13.30;;;;;;;23.44;64.23;100952.04;109042;279;38308;-73
2023/09/10 07:23:24;;;;;;;15.70;13.80;;;;;;;23.50;64.43;100951.77;109005;279;38314;-73
2023/09/10 07:25:58;;;;;;;16.70;14.60;;;;;;;23.58;64.30;100952.46;108977;279;39624;-73
2023/09/10 07:28:32;;;;;;;16.40;14.60;;;;;;;23.68;64.09;100946.52;108910;279;38670;-73
2023/09/10 07:31:07;;;;;;;17.10;13.20;;;;;;;23.74;63.33;100947.42;108882;279;39323;-73
2023/09/10 07:33:41;;;;;;;16.10;13.70;;;;;;;23.81;63.22;100946.66;108856;279;38634;-72
2023/09/10 07:36:15;;;;;;;16.60;13.20;;;;;;;23.87;63.33;100944.36;108813;279;38233;-71
2023/09/10 07:38:50;;;;;;;15.30;13.70;;;;;;;23.95;63.48;100944.41;108812;279;38744;-72
2023/09/10 07:41:24;;;;;;;14.80;13.20;;;;;;;24.02;62.99;100941.30;108863;279;39229;-73
2023/09/10 07:43:58;;;;;;;17.80;13.10;;;;;;;24.10;62.60;100936.75;108877;279;37976;-70
2023/09/10 07:46:33;;;;;;;16.40;12.60;;;;;;;24.16;62.24;100938.48;108909;279;39103;-72
2023/09/10 07:49:13;;;;;;;16.00;13.40;;;;;;;24.22;61.94;100935.87;108878;279;39382;-70
2023/09/10 07:51:48;;;;;;;13.60;11.90;;;;;;;24.31;61.48;100931.52;108883;279;39655;-71
2023/09/10 07:54:22;;;;;;;14.80;12.40;;;;;;;24.45;61.59;100934.61;108962;279;38508;-72
2023/09/10 07:56:56;;;;;;;20.80;13.20;;;;;;;24.67;61.42;100933.91;109016;279;39466;-72
2023/09/10 07:59:30;;;;;;;13.00;11.50;;;;;;;24.95;60.85;100930.84;109086;279;38463;-71
2023/09/10 08:02:05;;;;;;;13.70;11.70;;;;;;;25.26;60.66;100929.02;109032;279;39339;-71
2023/09/10 08:04:41;;;;;;;15.00;11.20;;;;;;;25.72;60.23;100926.94;109035;279;38512;-71
2023/09/10 08:07:15;;;;;;;16.00;11.60;;;;;;;26.40;59.53;100933.71;108999;279;39609;-71
2023/09/10 08:09:49;;;;;;;11.50;10.30;;;;;;;27.09;57.95;100929.23;109041;279;38755;-71
2023/09/10 08:12:23;;;;;;;14.40;10.60;;;;;;;27.78;54.77;100928.73;109009;279;39696;-73
2023/09/10 08:14:57;;;;;;;12.60;9.20;;;;;;;28.51;54.33;100928.66;108990;279;39772;-73
2023/09/10 08:17:31;;;;;;;10.60;9.50;;;;;;;29.34;52.01;100928.31;109032;279;38406;-72
2023/09/10 08:20:07;;;;;;;12.10;10.10;;;;;;;30.09;50.11;100932.48;109017;279;40034;-72
2023/09/10 08:22:41;;;;;;;10.50;9.40;;;;;;;30.64;47.27;100931.79;108938;279;171486;-72
2023/09/10 08:25:15;;;;;;;10.40;8.90;;;;;;;31.15;46.56;100931.14;109011;279;39758;-72
2023/09/10 08:27:49;;;;;;;9.30;8.30;;;;;;;31.69;45.00;100926.94;108449;279;881603;-72
2023/09/10 08:30:24;;;;;;;10.70;8.80;;;;;;;32.11;43.48;100927.92;109058;279;38600;-70
2023/09/10 08:32:58;;;;;;;9.80;8.70;;;;;;;32.28;41.92;100927.33;109080;278;38440;-71
2023/09/10 08:35:46;;;;;;;9.70;8.70;;;;;;;32.28;41.92;100928.16;108934;279;174174;-71
2023/09/10 08:38:19;;;;;;;;;;;;;;;32.33;41.44;100926.19;109040;279;39740;-71
2023/09/10 08:41:13;;;;;;;11.10;8.60;;;;;;;32.25;41.81;100928.40;109117;279;38321;-73
2023/09/10 08:43:55;;;;;;;13.30;8.70;;;;;;;32.45;40.74;100923.05;109073;279;38170;-71
2023/09/10 08:46:31;;;;;;;9.80;8.20;;;;;;;32.74;40.23;100919.04;109042;279;38324;-72
2023/09/10 08:49:06;;;;;;;9.20;8.00;;;;;;;33.02;39.28;100917.11;108386;279;882704;-72
2023/09/10 08:51:40;;;;;;;9.70;8.80;;;;;;;33.31;39.22;100911.98;108941;279;174061;-72
2023/09/10 08:54:14;;;;;;;10.30;8.20;;;;;;;33.67;38.86;100916.92;108914;279;187253;-71
2023/09/10 08:56:48;;;;;;;9.90;8.80;;;;;;;34.01;37.78;100907.80;109044;279;38732;-71
2023/09/10 08:59:23;;;;;;;9.90;8.30;;;;;;;34.10;37.04;100909.38;109042;279;37335;-71
2023/09/10 09:01:57;;;;;;;11.80;7.90;;;;;;;34.23;37.07;100910.79;108852;279;38376;-71
2023/09/10 09:04:31;;;;;;;10.90;7.90;;;;;;;34.28;36.62;100914.08;109016;278;38474;-71
2023/09/10 09:07:06;;;;;;;10.30;8.50;;;;;;;34.15;36.17;100910.71;109016;279;38193;-72
2023/09/10 09:09:45;;;;;;;9.50;7.90;;;;;;;33.94;36.66;100908.01;108997;279;38197;-72
2023/09/10 09:12:19;;;;;;;11.50;7.50;;;;;;;33.86;36.52;100912.10;108940;279;38557;-71
2023/09/10 09:14:53;;;;;;;11.70;7.70;;;;;;;33.71;35.86;100908.11;108974;279;40077;-74
2023/09/10 09:17:27;;;;;;;9.10;7.30;;;;;;;33.64;36.53;100906.04;108877;279;38167;-73
2023/09/10 09:20:02;;;;;;;8.50;7.40;;;;;;;33.64;36.90;100903.16;108937;279;38334;-73
2023/09/10 09:22:36;;;;;;;10.80;7.50;;;;;;;33.67;36.65;100902.95;108944;279;38775;-76
2023/09/10 09:25:12;;;;;;;8.80;7.50;;;;;;;33.73;35.86;100896.42;108982;279;38319;-76
2023/09/10 09:27:46;;;;;;;7.40;6.60;;;;;;;33.86;36.19;100898.86;109051;279;38972;-75
2023/09/10 09:30:19;;;;;;;8.90;7.60;;;;;;;34.08;35.86;100898.20;109022;279;38396;-75
2023/09/10 09:32:56;;;;;;;11.50;7.80;;;;;;;34.32;35.40;100895.92;108907;279;38869;-77
2023/09/10 09:35:30;;;;;;;9.90;7.10;;;;;;;34.54;34.87;100894.00;109020;279;38905;-76
2023/09/10 09:38:11;;;;;;;9.30;6.70;;;;;;;34.64;34.44;100894.46;109020;279;38931;-77
2023/09/10 09:40:45;;;;;;;8.30;6.90;;;;;;;34.55;33.94;100897.64;108348;278;883471;-77
2023/09/10 09:43:19;;;;;;;8.80;7.20;;;;;;;34.34;33.71;100895.38;109027;279;38901;-76
2023/09/10 09:45:53;;;;;;;8.20;7.20;;;;;;;33.98;34.02;100885.59;108995;279;38209;-76
2023/09/10 09:48:27;;;;;;;7.50;6.50;;;;;;;33.59;34.55;100883.16;108977;278;38293;-74
2023/09/10 09:51:02;;;;;;;9.90;6.70;;;;;;;33.24;35.10;100876.58;109012;279;39056;-74
2023/09/10 09:53:36;;;;;;;12.00;7.30;;;;;;;32.98;35.89;100876.13;108962;279;38977;-73
2023/09/10 09:56:11;;;;;;;9.30;6.80;;;;;;;32.64;36.46;100875.23;109000;279;38334;-75
2023/09/10 09:58:46;;;;;;;10.20;7.00;;;;;;;32.33;36.42;100871.70;108873;279;39687;-76
2023/09/10 10:01:22;;;;;;;9.60;7.30;;;;;;;32.00;36.91;100872.23;108903;279;38492;-73
2023/09/10 10:03:57;;;;;;;9.30;6.90;;;;;;;31.69;37.20;100870.86;108952;278;38325;-75
2023/09/10 10:06:31;;;;;;;11.70;8.10;;;;;;;31.46;37.92;100866.78;108903;279;38472;-75
2023/09/10 10:09:05;;;;;;;9.00;6.90;;;;;;;31.23;37.91;100866.79;108966;279;39334;-73
2023/09/10 10:11:39;;;;;;;13.90;7.00;;;;;;;31.01;38.15;100867.06;108914;279;39658;-73
2023/09/10 10:14:13;;;;;;;12.50;7.70;;;;;;;30.79;38.49;100865.86;108877;279;39813;-75
2023/09/10 10:16:47;;;;;;;9.50;7.60;;;;;;;30.61;39.69;100867.91;108918;279;38787;-76
2023/09/10 10:19:21;;;;;;;10.60;7.10;;;;;;;30.48;39.48;100866.46;108944;271;38791;-75
2023/09/10 10:21:55;;;;;;;12.50;7.40;;;;;;;30.36;40.25;100862.53;108876;279;38897;-75
2023/09/10 10:24:30;;;;;;;11.70;7.30;;;;;;;30.29;40.81;100860.61;108932;279;38222;-74
2023/09/10 10:27:04;;;;;;;11.50;7.00;;;;;;;30.23;40.87;100856.95;108900;279;38158;-74
2023/09/10 10:29:39;;;;;;;10.20;7.00;;;;;;;30.18;40.64;100855.31;108920;279;38927;-75
2023/09/10 10:32:27;;;;;;;9.60;7.60;;;;;;;30.10;40.74;100855.21;108904;279;38601;-75
2023/09/10 10:35:03;;;;;;;11.10;6.80;;;;;;;30.01;40.99;100855.40;108920;279;39775;-75
2023/09/10 10:37:45;;;;;;;11.30;7.60;;;;;;;29.92;40.66;100854.11;108958;279;39556;-74
2023/09/10 10:40:25;;;;;;;9.90;7.30;;;;;;;29.87;41.18;100849.73;108978;279;38425;-74
2023/09/10 10:43:04;;;;;;;13.50;7.40;;;;;;;29.82;41.18;100850.38;108950;278;38949;-73
2023/09/10 10:45:38;;;;;;;9.80;7.30;;;;;;;29.73;41.15;100844.91;108916;279;38293;-72
2023/09/10 10:48:19;;;;;;;10.20;7.10;;;;;;;29.64;41.42;100841.29;109038;279;38765;-76
2023/09/10 10:51:06;;;;;;;9.60;6.60;;;;;;;29.57;41.74;100836.13;108956;279;38431;-78
2023/09/10 10:53:40;;;;;;;8.30;6.70;;;;;;;29.51;41.64;100840.87;108706;282;38318;-73
2023/09/10 10:56:15;;;;;;;10.20;7.50;;;;;;;29.45;41.62;100840.13;108684;282;38536;-72
2023/09/10 10:58:50;;;;;;;12.30;7.50;;;;;;;29.39;41.98;100836.63;108721;282;38286;-72
2023/09/10 11:01:25;;;;;;;13.30;7.40;;;;;;;29.37;42.18;100838.82;108723;282;39508;-72
2023/09/10 11:03:59;;;;;;;14.30;7.10;;;;;;;29.32;41.83;100837.27;108711;282;38587;-75
2023/09/10 11:06:33;;;;;;;9.80;7.30;;;;;;;29.27;42.13;100834.23;108703;282;38142;-73
2023/09/10 11:09:23;;;;;;;11.60;6.80;;;;;;;29.23;42.55;100837.27;108770;282;38670;-74
2023/09/10 11:11:58;;;;;;;10.20;6.70;;;;;;;29.23;42.40;100843.06;108734;282;39530;-74
2023/09/10 11:14:32;;;;;;;8.90;6.70;;;;;;;29.19;41.93;100837.75;108736;282;39614;-74
2023/09/10 11:17:25;;;;;;;8.90;7.10;;;;;;;29.13;41.99;100837.77;108583;282;176134;-74
2023/09/10 11:20:03;;;;;;;10.30;6.80;;;;;;;29.03;42.09;100832.91;108746;282;38511;-75
2023/09/10 11:23:09;;;;;;;10.20;7.10;;;;;;;29.00;42.09;100829.44;108706;282;38219;-76
2023/09/10 11:25:45;;;;;;;11.00;7.30;;;;;;;28.91;41.90;100823.70;108826;279;38171;-73
2023/09/10 11:28:49;;;;;;;12.40;7.40;;;;;;;28.83;41.93;100825.30;109012;279;38168;-72
2023/09/10 11:31:45;;;;;;;13.00;7.70;;;;;;;28.77;42.18;100823.27;108886;279;38180;-74
2023/09/10 11:34:40;;;;;;;10.10;7.30;;;;;;;28.73;42.33;100818.08;108887;279;38333;-75
2023/09/10 11:37:15;;;;;;;14.70;7.60;;;;;;;28.69;42.73;100818.02;108933;279;38575;-73
2023/09/10 11:39:50;;;;;;;10.30;7.90;;;;;;;28.64;42.30;100814.48;108891;279;39297;-72
2023/09/10 11:42:27;;;;;;;10.80;7.40;;;;;;;28.53;42.13;100809.12;108857;279;174436;-73
2023/09/10 11:45:01;;;;;;;10.70;7.30;;;;;;;28.45;42.73;100806.78;108912;278;38142;-71
2023/09/10 11:47:37;;;;;;;9.50;6.80;;;;;;;28.44;42.96;100804.15;108919;279;38233;-75
2023/09/10 11:50:13;;;;;;;10.30;7.30;;;;;;;28.45;43.20;100804.98;108927;279;39575;-74
2023/09/10 11:52:48;;;;;;;16.30;7.50;;;;;;;28.44;43.37;100806.16;108965;279;38161;-74